»·PEaware :: N799BS KTOA-KSNA

N799BS :: KTOA-KSNA

FLIGHT INFORMATION

Flight Status: Arrived
Operator: Privately registered:
United States
More flights under this callsign
Pilot: Bradley C. (23947)
Aircraft: CESSNA 172 SKYHAWK
(C172)
More flights by this aircraft type
Origin: KTOA Zamperini
United States
Destination: KSNA John Wayne-Orange Co
United States
More flights between these airports :: More routes between these airports
Route: +LIMBO V64 SLI
File this flight plan on PilotEdge
Remarks:
Altitude:
(Current/Filed)
5,000ft
Speed:
(Current/Filed)
180kts
Departed: 24-Jun-19 09:14 AM
Arrived: 24-Jun-19 09:55 AM
Distance/Time
Traveled:
25nm/0:41
Distance/Time
To Go:
Arrived

Flight Plot

Page will automatically refresh every two minutes.


Map Options




Map Legend


Flown Route
Filed Route
Departure Airport
Arrival Airport
Navaid (VOR, NDB)
Fix

Horizontal Profiles

Position Reports

Time Latitude Longitude Heading Altitude Ground
Speed
24-Jun-19 08:56 33.803347 -118.344051 39 102ft 0kts
24-Jun-19 08:57 33.803347 -118.344051 39 102ft 0kts
24-Jun-19 08:58 33.803347 -118.344051 39 102ft 0kts
24-Jun-19 08:59 33.803347 -118.344051 39 102ft 0kts
24-Jun-19 09:00 33.803347 -118.344051 39 102ft 0kts
24-Jun-19 09:01 33.803347 -118.344051 39 102ft 0kts
24-Jun-19 09:02 33.803347 -118.344051 39 102ft 0kts
24-Jun-19 09:03 33.803347 -118.344051 39 102ft 0kts
24-Jun-19 09:04 33.803347 -118.344051 39 102ft 0kts
24-Jun-19 09:05 33.803347 -118.344051 39 102ft 0kts
24-Jun-19 09:06 33.803347 -118.344051 39 102ft 0kts
24-Jun-19 09:07 33.803347 -118.344051 39 102ft 0kts
24-Jun-19 09:08 33.803347 -118.344051 39 102ft 0kts
24-Jun-19 09:09 33.802595 -118.342656 128 104ft 22kts
24-Jun-19 09:10 33.799749 -118.338357 118 107ft 28kts
24-Jun-19 09:11 33.798141 -118.334191 39 105ft 17kts
24-Jun-19 09:12 33.799100 -118.333281 35 101ft 0kts
24-Jun-19 09:13 33.801139 -118.335260 307 98ft 60kts
24-Jun-19 09:14 33.813653 -118.353853 305 1039ft 71kts
24-Jun-19 09:15 33.828180 -118.376614 305 1790ft 94kts
24-Jun-19 09:16 33.842756 -118.401904 297 2686ft 89kts
24-Jun-19 09:17 33.854137 -118.427386 296 3579ft 83kts
24-Jun-19 09:18 33.854192 -118.453085 207 4001ft 104kts
24-Jun-19 09:19 33.824821 -118.455493 177 3999ft 108kts
24-Jun-19 09:20 33.794685 -118.452985 178 3999ft 108kts
24-Jun-19 09:21 33.765908 -118.445648 123 3997ft 110kts
24-Jun-19 09:22 33.762550 -118.409031 87 3999ft 111kts
24-Jun-19 09:23 33.764384 -118.371970 85 3999ft 111kts
24-Jun-19 09:24 33.766636 -118.334626 85 4008ft 111kts
24-Jun-19 09:25 33.768881 -118.297529 85 4008ft 111kts
24-Jun-19 09:26 33.771120 -118.260356 85 4006ft 111kts
24-Jun-19 09:27 33.778956 -118.224963 70 4005ft 110kts
24-Jun-19 09:28 33.789334 -118.187722 70 4004ft 117kts
24-Jun-19 09:29 33.800167 -118.148860 70 4003ft 130kts
24-Jun-19 09:30 33.811838 -118.106843 70 4001ft 132kts
24-Jun-19 09:31 33.823528 -118.064702 70 3999ft 133kts
24-Jun-19 09:32 33.832487 -118.032356 70 3999ft 132kts
24-Jun-19 09:33 33.844040 -117.990597 71 3999ft 133kts
24-Jun-19 09:34 33.855706 -117.948367 71 4000ft 134kts
24-Jun-19 09:35 33.867407 -117.905944 71 4000ft 134kts
24-Jun-19 09:36 33.879103 -117.863475 71 4000ft 134kts
24-Jun-19 09:37 33.890941 -117.820417 71 3999ft 135kts
24-Jun-19 09:38 33.902733 -117.777463 71 3998ft 135kts
24-Jun-19 09:39 33.914552 -117.734342 71 3996ft 135kts
24-Jun-19 09:40 33.937455 -117.702154 26 3995ft 133kts
24-Jun-19 09:41 33.970319 -117.681437 25 3996ft 133kts
24-Jun-19 09:42 33.986143 -117.701686 223 3994ft 129kts
24-Jun-19 09:43 33.951811 -117.715406 200 3996ft 130kts
24-Jun-19 09:44 33.917525 -117.729980 200 3996ft 130kts
24-Jun-19 09:45 33.883216 -117.744533 200 3996ft 130kts
24-Jun-19 09:46 33.853043 -117.757361 200 3632ft 108kts
24-Jun-19 09:47 33.827411 -117.772632 209 3131ft 96kts
24-Jun-19 09:48 33.804393 -117.787225 208 2214ft 84kts
24-Jun-19 09:49 33.782617 -117.800971 208 2199ft 96kts
24-Jun-19 09:50 33.758540 -117.816304 208 1829ft 103kts
24-Jun-19 09:51 33.733603 -117.832133 208 1246ft 103kts
24-Jun-19 09:52 33.707612 -117.848625 208 660ft 106kts
24-Jun-19 09:53 33.686084 -117.862240 208 201ft 61kts
24-Jun-19 09:54 33.675884 -117.869601 298 60ft 13kts

Navigation Log

Ident Type
Flight plan parsing failed, navigation log unavailable